sensor_id;sensor_type;location;lat;lon;timestamp;P1;durP1;ratioP1;P2;durP2;ratioP2
11187;SDS011;5650;52.700;7.306;2023-12-07T00:00:47;12.00;;;10.30;;
11187;SDS011;5650;52.700;7.306;2023-12-07T00:03:17;14.23;;;10.80;;
11187;SDS011;5650;52.700;7.306;2023-12-07T00:05:44;11.98;;;10.70;;
11187;SDS011;5650;52.700;7.306;2023-12-07T00:08:11;11.50;;;10.30;;
11187;SDS011;5650;52.700;7.306;2023-12-07T00:10:39;17.50;;;11.23;;
11187;SDS011;5650;52.700;7.306;2023-12-07T00:13:08;13.27;;;10.38;;
11187;SDS011;5650;52.700;7.306;2023-12-07T00:15:40;14.75;;;11.07;;
11187;SDS011;5650;52.700;7.306;2023-12-07T00:18:07;12.38;;;10.75;;
11187;SDS011;5650;52.700;7.306;2023-12-07T00:20:37;14.43;;;10.23;;
11187;SDS011;5650;52.700;7.306;2023-12-07T00:23:04;16.27;;;10.93;;
11187;SDS011;5650;52.700;7.306;2023-12-07T00:25:31;11.75;;;10.18;;
11187;SDS011;5650;52.700;7.306;2023-12-07T00:27:59;11.13;;;9.85;;
11187;SDS011;5650;52.700;7.306;2023-12-07T00:30:26;13.52;;;11.00;;
11187;SDS011;5650;52.700;7.306;2023-12-07T00:32:58;10.80;;;9.48;;
11187;SDS011;5650;52.700;7.306;2023-12-07T00:35:25;11.00;;;9.50;;
11187;SDS011;5650;52.700;7.306;2023-12-07T00:37:55;12.48;;;9.48;;
11187;SDS011;5650;52.700;7.306;2023-12-07T00:40:23;12.70;;;8.90;;
11187;SDS011;5650;52.700;7.306;2023-12-07T00:42:51;11.10;;;8.70;;
11187;SDS011;5650;52.700;7.306;2023-12-07T00:45:18;12.55;;;9.32;;
11187;SDS011;5650;52.700;7.306;2023-12-07T00:47:45;11.05;;;9.30;;
11187;SDS011;5650;52.700;7.306;2023-12-07T00:50:14;13.70;;;8.63;;
11187;SDS011;5650;52.700;7.306;2023-12-07T00:52:41;12.55;;;8.85;;
11187;SDS011;5650;52.700;7.306;2023-12-07T00:55:11;11.30;;;9.20;;
11187;SDS011;5650;52.700;7.306;2023-12-07T00:57:39;10.77;;;8.70;;
11187;SDS011;5650;52.700;7.306;2023-12-07T01:00:06;11.10;;;8.90;;
11187;SDS011;5650;52.700;7.306;2023-12-07T01:02:35;9.45;;;7.65;;
11187;SDS011;5650;52.700;7.306;2023-12-07T01:05:02;9.18;;;8.07;;
11187;SDS011;5650;52.700;7.306;2023-12-07T01:07:32;14.15;;;8.60;;
11187;SDS011;5650;52.700;7.306;2023-12-07T01:09:59;12.70;;;8.57;;
11187;SDS011;5650;52.700;7.306;2023-12-07T01:12:26;10.55;;;8.57;;
11187;SDS011;5650;52.700;7.306;2023-12-07T01:14:54;15.77;;;9.70;;
11187;SDS011;5650;52.700;7.306;2023-12-07T01:17:21;9.32;;;8.35;;
11187;SDS011;5650;52.700;7.306;2023-12-07T01:19:48;10.20;;;8.20;;
11187;SDS011;5650;52.700;7.306;2023-12-07T01:22:15;10.38;;;8.07;;
11187;SDS011;5650;52.700;7.306;2023-12-07T01:24:44;13.15;;;8.68;;
11187;SDS011;5650;52.700;7.306;2023-12-07T01:27:14;12.13;;;7.85;;
11187;SDS011;5650;52.700;7.306;2023-12-07T01:29:41;11.63;;;8.63;;
11187;SDS011;5650;52.700;7.306;2023-12-07T01:32:09;10.20;;;8.60;;
11187;SDS011;5650;52.700;7.306;2023-12-07T01:34:39;12.07;;;8.63;;
11187;SDS011;5650;52.700;7.306;2023-12-07T01:37:12;9.60;;;7.97;;
11187;SDS011;5650;52.700;7.306;2023-12-07T01:39:41;9.32;;;8.20;;
11187;SDS011;5650;52.700;7.306;2023-12-07T01:42:10;9.20;;;8.00;;
11187;SDS011;5650;52.700;7.306;2023-12-07T01:44:40;12.25;;;8.20;;
11187;SDS011;5650;52.700;7.306;2023-12-07T01:47:07;10.65;;;8.13;;
11187;SDS011;5650;52.700;7.306;2023-12-07T01:49:41;9.15;;;8.20;;
11187;SDS011;5650;52.700;7.306;2023-12-07T01:52:14;8.93;;;7.30;;
11187;SDS011;5650;52.700;7.306;2023-12-07T01:54:42;12.65;;;7.95;;
11187;SDS011;5650;52.700;7.306;2023-12-07T01:57:17;9.05;;;7.45;;
11187;SDS011;5650;52.700;7.306;2023-12-07T01:59:44;10.40;;;8.10;;
11187;SDS011;5650;52.700;7.306;2023-12-07T02:02:15;16.08;;;8.02;;
11187;SDS011;5650;52.700;7.306;2023-12-07T02:04:42;7.97;;;7.18;;
11187;SDS011;5650;52.700;7.306;2023-12-07T02:07:18;12.40;;;7.80;;
11187;SDS011;5650;52.700;7.306;2023-12-07T02:09:46;7.93;;;7.10;;
11187;SDS011;5650;52.700;7.306;2023-12-07T02:12:13;9.18;;;8.13;;
11187;SDS011;5650;52.700;7.306;2023-12-07T02:14:42;7.75;;;6.63;;
11187;SDS011;5650;52.700;7.306;2023-12-07T02:17:14;10.35;;;7.20;;
11187;SDS011;5650;52.700;7.306;2023-12-07T02:22:42;8.80;;;7.53;;
11187;SDS011;5650;52.700;7.306;2023-12-07T02:25:14;10.27;;;7.82;;
11187;SDS011;5650;52.700;7.306;2023-12-07T02:27:45;8.70;;;7.50;;
11187;SDS011;5650;52.700;7.306;2023-12-07T02:30:12;11.00;;;7.75;;
11187;SDS011;5650;52.700;7.306;2023-12-07T02:32:40;15.55;;;8.07;;
11187;SDS011;5650;52.700;7.306;2023-12-07T02:35:15;10.77;;;7.38;;
11187;SDS011;5650;52.700;7.306;2023-12-07T02:37:48;10.98;;;7.75;;
11187;SDS011;5650;52.700;7.306;2023-12-07T02:40:17;8.75;;;7.60;;
11187;SDS011;5650;52.700;7.306;2023-12-07T02:42:47;9.68;;;8.27;;
11187;SDS011;5650;52.700;7.306;2023-12-07T02:45:16;11.32;;;8.68;;
11187;SDS011;5650;52.700;7.306;2023-12-07T02:47:46;9.07;;;7.70;;
11187;SDS011;5650;52.700;7.306;2023-12-07T02:50:13;10.48;;;8.07;;
11187;SDS011;5650;52.700;7.306;2023-12-07T02:52:46;11.82;;;7.82;;
11187;SDS011;5650;52.700;7.306;2023-12-07T02:55:14;12.00;;;8.27;;
11187;SDS011;5650;52.700;7.306;2023-12-07T02:57:41;9.20;;;7.63;;
11187;SDS011;5650;52.700;7.306;2023-12-07T03:00:10;16.42;;;8.30;;
11187;SDS011;5650;52.700;7.306;2023-12-07T03:02:39;10.45;;;8.73;;
11187;SDS011;5650;52.700;7.306;2023-12-07T03:05:13;11.40;;;8.65;;
11187;SDS011;5650;52.700;7.306;2023-12-07T03:07:40;9.93;;;8.77;;
11187;SDS011;5650;52.700;7.306;2023-12-07T03:10:07;11.57;;;8.40;;
11187;SDS011;5650;52.700;7.306;2023-12-07T03:12:41;9.52;;;8.52;;
11187;SDS011;5650;52.700;7.306;2023-12-07T03:15:10;9.07;;;7.88;;
11187;SDS011;5650;52.700;7.306;2023-12-07T03:17:41;10.35;;;8.52;;
11187;SDS011;5650;52.700;7.306;2023-12-07T03:20:12;11.18;;;8.68;;
11187;SDS011;5650;52.700;7.306;2023-12-07T03:22:39;10.10;;;8.32;;
11187;SDS011;5650;52.700;7.306;2023-12-07T03:25:09;10.98;;;8.52;;
11187;SDS011;5650;52.700;7.306;2023-12-07T03:27:39;10.82;;;8.98;;
11187;SDS011;5650;52.700;7.306;2023-12-07T03:30:11;10.77;;;8.95;;
11187;SDS011;5650;52.700;7.306;2023-12-07T03:32:39;13.95;;;9.25;;
11187;SDS011;5650;52.700;7.306;2023-12-07T03:35:08;11.98;;;9.70;;
11187;SDS011;5650;52.700;7.306;2023-12-07T03:37:39;12.57;;;9.85;;
11187;SDS011;5650;52.700;7.306;2023-12-07T03:40:07;11.13;;;9.73;;
11187;SDS011;5650;52.700;7.306;2023-12-07T03:42:35;13.48;;;9.73;;
11187;SDS011;5650;52.700;7.306;2023-12-07T03:45:02;14.07;;;9.32;;
11187;SDS011;5650;52.700;7.306;2023-12-07T03:47:32;14.07;;;9.93;;
11187;SDS011;5650;52.700;7.306;2023-12-07T03:50:01;12.25;;;9.88;;
11187;SDS011;5650;52.700;7.306;2023-12-07T03:52:37;10.98;;;9.60;;
11187;SDS011;5650;52.700;7.306;2023-12-07T03:55:05;12.65;;;10.05;;
11187;SDS011;5650;52.700;7.306;2023-12-07T03:57:32;13.18;;;8.95;;
11187;SDS011;5650;52.700;7.306;2023-12-07T03:59:59;11.30;;;9.15;;
11187;SDS011;5650;52.700;7.306;2023-12-07T04:02:29;11.45;;;9.40;;
11187;SDS011;5650;52.700;7.306;2023-12-07T04:04:59;11.68;;;9.43;;
11187;SDS011;5650;52.700;7.306;2023-12-07T04:07:30;14.40;;;10.13;;
11187;SDS011;5650;52.700;7.306;2023-12-07T04:09:57;12.10;;;9.57;;
11187;SDS011;5650;52.700;7.306;2023-12-07T04:12:27;10.25;;;9.25;;
11187;SDS011;5650;52.700;7.306;2023-12-07T04:14:54;13.43;;;9.57;;
11187;SDS011;5650;52.700;7.306;2023-12-07T04:17:22;15.75;;;9.98;;
11187;SDS011;5650;52.700;7.306;2023-12-07T04:19:55;12.38;;;9.23;;
11187;SDS011;5650;52.700;7.306;2023-12-07T04:22:24;11.70;;;10.27;;
11187;SDS011;5650;52.700;7.306;2023-12-07T04:24:51;12.95;;;10.38;;
11187;SDS011;5650;52.700;7.306;2023-12-07T04:27:18;11.82;;;10.07;;
11187;SDS011;5650;52.700;7.306;2023-12-07T04:29:45;16.85;;;10.18;;
11187;SDS011;5650;52.700;7.306;2023-12-07T04:32:13;11.45;;;10.20;;
11187;SDS011;5650;52.700;7.306;2023-12-07T04:34:40;11.75;;;10.15;;
11187;SDS011;5650;52.700;7.306;2023-12-07T04:37:10;13.15;;;10.05;;
11187;SDS011;5650;52.700;7.306;2023-12-07T04:39:38;15.55;;;10.40;;
11187;SDS011;5650;52.700;7.306;2023-12-07T04:42:06;12.85;;;10.32;;
11187;SDS011;5650;52.700;7.306;2023-12-07T04:44:39;16.33;;;10.95;;
11187;SDS011;5650;52.700;7.306;2023-12-07T04:47:09;12.70;;;10.40;;
11187;SDS011;5650;52.700;7.306;2023-12-07T04:49:36;11.30;;;9.95;;
11187;SDS011;5650;52.700;7.306;2023-12-07T04:52:15;14.52;;;10.77;;
11187;SDS011;5650;52.700;7.306;2023-12-07T04:54:44;12.95;;;10.95;;
11187;SDS011;5650;52.700;7.306;2023-12-07T04:57:11;11.23;;;10.00;;
11187;SDS011;5650;52.700;7.306;2023-12-07T04:59:44;15.48;;;10.48;;
11187;SDS011;5650;52.700;7.306;2023-12-07T05:02:12;13.95;;;10.57;;
11187;SDS011;5650;52.700;7.306;2023-12-07T05:04:39;13.45;;;10.35;;
11187;SDS011;5650;52.700;7.306;2023-12-07T05:07:07;15.70;;;11.43;;
11187;SDS011;5650;52.700;7.306;2023-12-07T05:09:34;14.07;;;10.27;;
11187;SDS011;5650;52.700;7.306;2023-12-07T05:12:03;12.07;;;10.38;;
11187;SDS011;5650;52.700;7.306;2023-12-07T05:14:34;13.90;;;11.15;;
11187;SDS011;5650;52.700;7.306;2023-12-07T05:17:01;13.93;;;10.55;;
11187;SDS011;5650;52.700;7.306;2023-12-07T05:19:29;14.82;;;10.60;;
11187;SDS011;5650;52.700;7.306;2023-12-07T05:21:56;17.92;;;11.13;;
11187;SDS011;5650;52.700;7.306;2023-12-07T05:24:26;11.20;;;10.05;;
11187;SDS011;5650;52.700;7.306;2023-12-07T05:26:55;14.07;;;10.15;;
11187;SDS011;5650;52.700;7.306;2023-12-07T05:29:24;17.70;;;11.02;;
11187;SDS011;5650;52.700;7.306;2023-12-07T05:32:00;13.52;;;10.23;;
11187;SDS011;5650;52.700;7.306;2023-12-07T05:34:30;14.38;;;11.27;;
11187;SDS011;5650;52.700;7.306;2023-12-07T05:36:58;12.55;;;11.05;;
11187;SDS011;5650;52.700;7.306;2023-12-07T05:39:29;15.80;;;11.32;;
11187;SDS011;5650;52.700;7.306;2023-12-07T05:41:58;14.13;;;10.82;;
11187;SDS011;5650;52.700;7.306;2023-12-07T05:44:30;12.68;;;10.73;;
11187;SDS011;5650;52.700;7.306;2023-12-07T05:47:00;13.27;;;10.27;;
11187;SDS011;5650;52.700;7.306;2023-12-07T05:49:31;19.70;;;10.98;;
11187;SDS011;5650;52.700;7.306;2023-12-07T05:52:01;14.05;;;10.35;;
11187;SDS011;5650;52.700;7.306;2023-12-07T05:54:28;12.10;;;10.80;;
11187;SDS011;5650;52.700;7.306;2023-12-07T05:56:55;11.63;;;10.35;;
11187;SDS011;5650;52.700;7.306;2023-12-07T05:59:26;12.90;;;10.43;;
11187;SDS011;5650;52.700;7.306;2023-12-07T06:01:54;13.63;;;11.13;;
11187;SDS011;5650;52.700;7.306;2023-12-07T06:04:29;14.52;;;10.73;;
11187;SDS011;5650;52.700;7.306;2023-12-07T06:06:56;12.32;;;10.55;;
11187;SDS011;5650;52.700;7.306;2023-12-07T06:09:26;13.25;;;11.45;;
11187;SDS011;5650;52.700;7.306;2023-12-07T06:11:56;18.77;;;11.55;;
11187;SDS011;5650;52.700;7.306;2023-12-07T06:14:29;17.13;;;11.82;;
11187;SDS011;5650;52.700;7.306;2023-12-07T06:17:03;13.75;;;11.43;;
11187;SDS011;5650;52.700;7.306;2023-12-07T06:19:30;16.55;;;12.15;;
11187;SDS011;5650;52.700;7.306;2023-12-07T06:21:57;14.15;;;11.82;;
11187;SDS011;5650;52.700;7.306;2023-12-07T06:24:29;16.05;;;12.27;;
11187;SDS011;5650;52.700;7.306;2023-12-07T06:26:57;13.02;;;11.18;;
11187;SDS011;5650;52.700;7.306;2023-12-07T06:29:24;13.32;;;11.48;;
11187;SDS011;5650;52.700;7.306;2023-12-07T06:31:55;19.33;;;12.55;;
11187;SDS011;5650;52.700;7.306;2023-12-07T06:34:23;15.18;;;11.65;;
11187;SDS011;5650;52.700;7.306;2023-12-07T06:36:50;15.75;;;12.73;;
11187;SDS011;5650;52.700;7.306;2023-12-07T06:39:31;18.00;;;13.15;;
11187;SDS011;5650;52.700;7.306;2023-12-07T06:41:58;14.80;;;12.82;;
11187;SDS011;5650;52.700;7.306;2023-12-07T06:44:26;15.70;;;13.82;;
11187;SDS011;5650;52.700;7.306;2023-12-07T06:46:53;19.02;;;14.50;;
11187;SDS011;5650;52.700;7.306;2023-12-07T06:49:29;20.00;;;14.23;;
11187;SDS011;5650;52.700;7.306;2023-12-07T06:51:56;17.33;;;14.65;;
11187;SDS011;5650;52.700;7.306;2023-12-07T06:54:26;17.80;;;14.85;;
11187;SDS011;5650;52.700;7.306;2023-12-07T06:56:53;18.10;;;14.23;;
11187;SDS011;5650;52.700;7.306;2023-12-07T06:59:32;16.27;;;13.23;;
11187;SDS011;5650;52.700;7.306;2023-12-07T07:02:00;19.73;;;16.55;;
11187;SDS011;5650;52.700;7.306;2023-12-07T07:04:29;27.35;;;22.45;;
11187;SDS011;5650;52.700;7.306;2023-12-07T07:07:00;43.42;;;32.60;;
11187;SDS011;5650;52.700;7.306;2023-12-07T07:09:27;30.60;;;21.80;;
11187;SDS011;5650;52.700;7.306;2023-12-07T07:12:00;38.30;;;28.88;;
11187;SDS011;5650;52.700;7.306;2023-12-07T07:14:27;26.00;;;20.58;;
11187;SDS011;5650;52.700;7.306;2023-12-07T07:16:56;21.02;;;17.65;;
11187;SDS011;5650;52.700;7.306;2023-12-07T07:19:26;22.75;;;18.50;;
11187;SDS011;5650;52.700;7.306;2023-12-07T07:21:55;25.70;;;18.17;;
11187;SDS011;5650;52.700;7.306;2023-12-07T07:24:25;23.35;;;17.50;;
11187;SDS011;5650;52.700;7.306;2023-12-07T07:26:53;21.73;;;16.70;;
11187;SDS011;5650;52.700;7.306;2023-12-07T07:29:20;19.95;;;16.67;;
11187;SDS011;5650;52.700;7.306;2023-12-07T07:31:47;20.25;;;17.13;;
11187;SDS011;5650;52.700;7.306;2023-12-07T07:34:17;22.65;;;18.35;;
11187;SDS011;5650;52.700;7.306;2023-12-07T07:36:43;24.77;;;19.23;;
11187;SDS011;5650;52.700;7.306;2023-12-07T07:42:33;25.33;;;20.67;;
11187;SDS011;5650;52.700;7.306;2023-12-07T07:45:03;23.98;;;20.15;;
11187;SDS011;5650;52.700;7.306;2023-12-07T07:47:34;25.90;;;19.63;;
11187;SDS011;5650;52.700;7.306;2023-12-07T07:50:01;26.65;;;18.65;;
11187;SDS011;5650;52.700;7.306;2023-12-07T07:52:31;24.15;;;19.10;;
11187;SDS011;5650;52.700;7.306;2023-12-07T07:55:02;24.92;;;19.38;;
11187;SDS011;5650;52.700;7.306;2023-12-07T07:57:30;24.52;;;18.30;;
11187;SDS011;5650;52.700;7.306;2023-12-07T07:59:59;22.80;;;18.67;;
11187;SDS011;5650;52.700;7.306;2023-12-07T08:02:26;26.13;;;19.00;;
11187;SDS011;5650;52.700;7.306;2023-12-07T08:04:56;25.80;;;19.08;;
11187;SDS011;5650;52.700;7.306;2023-12-07T08:07:29;30.02;;;20.05;;
11187;SDS011;5650;52.700;7.306;2023-12-07T08:10:01;28.10;;;20.35;;
11187;SDS011;5650;52.700;7.306;2023-12-07T08:12:29;28.65;;;20.50;;
11187;SDS011;5650;52.700;7.306;2023-12-07T08:14:58;27.45;;;22.15;;
11187;SDS011;5650;52.700;7.306;2023-12-07T08:17:25;26.27;;;22.00;;
11187;SDS011;5650;52.700;7.306;2023-12-07T08:19:55;34.03;;;21.15;;
11187;SDS011;5650;52.700;7.306;2023-12-07T08:22:25;27.80;;;21.25;;
11187;SDS011;5650;52.700;7.306;2023-12-07T08:24:56;29.90;;;20.58;;
11187;SDS011;5650;52.700;7.306;2023-12-07T08:27:29;30.23;;;21.25;;
11187;SDS011;5650;52.700;7.306;2023-12-07T08:29:57;35.72;;;23.02;;
11187;SDS011;5650;52.700;7.306;2023-12-07T08:32:24;27.98;;;22.80;;
11187;SDS011;5650;52.700;7.306;2023-12-07T08:34:54;32.72;;;24.15;;
11187;SDS011;5650;52.700;7.306;2023-12-07T08:37:27;26.90;;;21.80;;
11187;SDS011;5650;52.700;7.306;2023-12-07T08:40:01;26.13;;;20.17;;
11187;SDS011;5650;52.700;7.306;2023-12-07T08:42:31;28.20;;;20.77;;
11187;SDS011;5650;52.700;7.306;2023-12-07T08:45:00;28.23;;;21.45;;
11187;SDS011;5650;52.700;7.306;2023-12-07T08:47:27;28.10;;;22.58;;
11187;SDS011;5650;52.700;7.306;2023-12-07T08:49:55;25.88;;;21.30;;
11187;SDS011;5650;52.700;7.306;2023-12-07T08:52:26;29.83;;;21.80;;
11187;SDS011;5650;52.700;7.306;2023-12-07T08:54:59;27.27;;;21.40;;
11187;SDS011;5650;52.700;7.306;2023-12-07T08:57:29;26.10;;;19.58;;
11187;SDS011;5650;52.700;7.306;2023-12-07T09:00:04;25.40;;;20.05;;
11187;SDS011;5650;52.700;7.306;2023-12-07T09:02:32;26.77;;;20.08;;
11187;SDS011;5650;52.700;7.306;2023-12-07T09:04:59;27.25;;;20.42;;
11187;SDS011;5650;52.700;7.306;2023-12-07T09:07:29;22.95;;;19.55;;
11187;SDS011;5650;52.700;7.306;2023-12-07T09:09:56;24.83;;;19.67;;
11187;SDS011;5650;52.700;7.306;2023-12-07T09:12:31;27.15;;;19.48;;
11187;SDS011;5650;52.700;7.306;2023-12-07T09:15:00;26.05;;;19.70;;
11187;SDS011;5650;52.700;7.306;2023-12-07T09:17:33;23.33;;;19.42;;
11187;SDS011;5650;52.700;7.306;2023-12-07T09:20:00;25.80;;;19.95;;
11187;SDS011;5650;52.700;7.306;2023-12-07T09:22:30;20.95;;;18.42;;
11187;SDS011;5650;52.700;7.306;2023-12-07T09:24:57;23.15;;;19.50;;
11187;SDS011;5650;52.700;7.306;2023-12-07T09:27:33;24.52;;;19.38;;
11187;SDS011;5650;52.700;7.306;2023-12-07T09:30:03;24.98;;;19.95;;
11187;SDS011;5650;52.700;7.306;2023-12-07T09:32:33;23.08;;;18.90;;
11187;SDS011;5650;52.700;7.306;2023-12-07T09:35:03;22.08;;;18.75;;
11187;SDS011;5650;52.700;7.306;2023-12-07T09:37:32;20.95;;;17.88;;
11187;SDS011;5650;52.700;7.306;2023-12-07T09:40:14;22.15;;;17.95;;
11187;SDS011;5650;52.700;7.306;2023-12-07T09:42:46;22.42;;;18.80;;
11187;SDS011;5650;52.700;7.306;2023-12-07T09:45:14;19.70;;;16.77;;
11187;SDS011;5650;52.700;7.306;2023-12-07T09:47:49;22.75;;;18.40;;
11187;SDS011;5650;52.700;7.306;2023-12-07T09:50:17;22.70;;;18.35;;
11187;SDS011;5650;52.700;7.306;2023-12-07T09:52:47;25.08;;;19.20;;
11187;SDS011;5650;52.700;7.306;2023-12-07T09:55:16;25.15;;;18.92;;
11187;SDS011;5650;52.700;7.306;2023-12-07T09:57:43;25.30;;;19.30;;
11187;SDS011;5650;52.700;7.306;2023-12-07T10:00:12;27.95;;;19.63;;
11187;SDS011;5650;52.700;7.306;2023-12-07T10:02:40;24.00;;;19.40;;
11187;SDS011;5650;52.700;7.306;2023-12-07T10:05:13;25.60;;;20.05;;
11187;SDS011;5650;52.700;7.306;2023-12-07T10:07:42;24.77;;;19.85;;
11187;SDS011;5650;52.700;7.306;2023-12-07T10:10:14;27.38;;;19.90;;
11187;SDS011;5650;52.700;7.306;2023-12-07T10:12:46;26.75;;;20.73;;
11187;SDS011;5650;52.700;7.306;2023-12-07T10:15:17;34.13;;;21.52;;
11187;SDS011;5650;52.700;7.306;2023-12-07T10:17:46;29.10;;;21.60;;
11187;SDS011;5650;52.700;7.306;2023-12-07T10:20:16;33.13;;;22.80;;
11187;SDS011;5650;52.700;7.306;2023-12-07T10:22:47;35.13;;;22.50;;
11187;SDS011;5650;52.700;7.306;2023-12-07T10:25:20;32.33;;;23.10;;
11187;SDS011;5650;52.700;7.306;2023-12-07T10:27:48;29.08;;;22.35;;
11187;SDS011;5650;52.700;7.306;2023-12-07T10:30:15;33.65;;;23.38;;
11187;SDS011;5650;52.700;7.306;2023-12-07T10:32:50;33.20;;;23.60;;
11187;SDS011;5650;52.700;7.306;2023-12-07T10:35:19;35.22;;;23.90;;
11187;SDS011;5650;52.700;7.306;2023-12-07T10:37:47;31.83;;;21.98;;
11187;SDS011;5650;52.700;7.306;2023-12-07T10:40:17;41.42;;;24.63;;
11187;SDS011;5650;52.700;7.306;2023-12-07T10:42:49;38.05;;;23.00;;
11187;SDS011;5650;52.700;7.306;2023-12-07T10:45:21;38.53;;;23.80;;
11187;SDS011;5650;52.700;7.306;2023-12-07T10:47:51;39.80;;;23.65;;
11187;SDS011;5650;52.700;7.306;2023-12-07T10:50:22;36.50;;;22.88;;
11187;SDS011;5650;52.700;7.306;2023-12-07T10:52:51;38.38;;;23.67;;
11187;SDS011;5650;52.700;7.306;2023-12-07T10:55:20;47.70;;;23.05;;
11187;SDS011;5650;52.700;7.306;2023-12-07T10:57:52;40.75;;;21.88;;
11187;SDS011;5650;52.700;7.306;2023-12-07T11:00:20;46.38;;;24.73;;
11187;SDS011;5650;52.700;7.306;2023-12-07T11:02:49;49.08;;;24.25;;
11187;SDS011;5650;52.700;7.306;2023-12-07T11:05:18;50.75;;;25.30;;
11187;SDS011;5650;52.700;7.306;2023-12-07T11:07:49;47.53;;;26.48;;
11187;SDS011;5650;52.700;7.306;2023-12-07T11:10:23;57.45;;;29.17;;
11187;SDS011;5650;52.700;7.306;2023-12-07T11:13:05;53.60;;;28.00;;
11187;SDS011;5650;52.700;7.306;2023-12-07T11:15:40;52.00;;;26.83;;
11187;SDS011;5650;52.700;7.306;2023-12-07T11:18:07;47.30;;;27.75;;
11187;SDS011;5650;52.700;7.306;2023-12-07T11:20:47;55.92;;;27.60;;
11187;SDS011;5650;52.700;7.306;2023-12-07T11:23:17;65.07;;;32.55;;
11187;SDS011;5650;52.700;7.306;2023-12-07T11:25:48;77.22;;;36.88;;
11187;SDS011;5650;52.700;7.306;2023-12-07T11:28:15;64.35;;;30.23;;
11187;SDS011;5650;52.700;7.306;2023-12-07T11:30:44;69.30;;;32.83;;
11187;SDS011;5650;52.700;7.306;2023-12-07T11:33:12;59.97;;;30.05;;
11187;SDS011;5650;52.700;7.306;2023-12-07T11:41:58;56.75;;;29.75;;
11187;SDS011;5650;52.700;7.306;2023-12-07T11:44:34;60.72;;;31.60;;
11187;SDS011;5650;52.700;7.306;2023-12-07T11:47:01;74.93;;;32.10;;
11187;SDS011;5650;52.700;7.306;2023-12-07T11:49:28;64.32;;;32.20;;
11187;SDS011;5650;52.700;7.306;2023-12-07T11:51:59;66.00;;;31.23;;
11187;SDS011;5650;52.700;7.306;2023-12-07T11:54:26;69.53;;;33.58;;
11187;SDS011;5650;52.700;7.306;2023-12-07T11:56:53;62.95;;;33.03;;
11187;SDS011;5650;52.700;7.306;2023-12-07T11:59:28;66.30;;;33.85;;
11187;SDS011;5650;52.700;7.306;2023-12-07T12:01:55;77.53;;;37.55;;
11187;SDS011;5650;52.700;7.306;2023-12-07T12:04:33;75.13;;;36.17;;
11187;SDS011;5650;52.700;7.306;2023-12-07T12:07:01;81.10;;;40.00;;
11187;SDS011;5650;52.700;7.306;2023-12-07T12:09:30;75.70;;;36.42;;
11187;SDS011;5650;52.700;7.306;2023-12-07T12:12:03;72.88;;;35.90;;
11187;SDS011;5650;52.700;7.306;2023-12-07T12:14:32;73.25;;;35.63;;
11187;SDS011;5650;52.700;7.306;2023-12-07T12:16:59;69.47;;;33.83;;
11187;SDS011;5650;52.700;7.306;2023-12-07T12:19:28;67.90;;;34.42;;
11187;SDS011;5650;52.700;7.306;2023-12-07T12:22:01;60.95;;;31.75;;
11187;SDS011;5650;52.700;7.306;2023-12-07T12:24:28;59.05;;;31.77;;
11187;SDS011;5650;52.700;7.306;2023-12-07T12:26:55;58.90;;;32.33;;
11187;SDS011;5650;52.700;7.306;2023-12-07T12:29:26;64.68;;;36.17;;
11187;SDS011;5650;52.700;7.306;2023-12-07T12:31:58;68.72;;;35.33;;
11187;SDS011;5650;52.700;7.306;2023-12-07T12:34:30;68.10;;;35.78;;
11187;SDS011;5650;52.700;7.306;2023-12-07T12:36:58;69.07;;;35.53;;
11187;SDS011;5650;52.700;7.306;2023-12-07T12:39:39;69.32;;;36.30;;
11187;SDS011;5650;52.700;7.306;2023-12-07T12:42:06;75.03;;;37.47;;
11187;SDS011;5650;52.700;7.306;2023-12-07T12:44:39;65.30;;;35.58;;
11187;SDS011;5650;52.700;7.306;2023-12-07T12:47:10;77.20;;;38.80;;
11187;SDS011;5650;52.700;7.306;2023-12-07T12:49:41;82.88;;;38.70;;
11187;SDS011;5650;52.700;7.306;2023-12-07T12:52:14;72.53;;;38.40;;
11187;SDS011;5650;52.700;7.306;2023-12-07T12:54:42;69.90;;;36.95;;
11187;SDS011;5650;52.700;7.306;2023-12-07T12:57:10;69.80;;;38.33;;
11187;SDS011;5650;52.700;7.306;2023-12-07T12:59:40;68.32;;;36.03;;
11187;SDS011;5650;52.700;7.306;2023-12-07T13:02:07;62.55;;;34.65;;
11187;SDS011;5650;52.700;7.306;2023-12-07T13:04:43;66.97;;;34.08;;
11187;SDS011;5650;52.700;7.306;2023-12-07T13:07:10;64.10;;;34.67;;
11187;SDS011;5650;52.700;7.306;2023-12-07T13:09:45;68.28;;;35.45;;
11187;SDS011;5650;52.700;7.306;2023-12-07T13:12:15;60.35;;;32.90;;
11187;SDS011;5650;52.700;7.306;2023-12-07T13:14:51;65.38;;;34.17;;
11187;SDS011;5650;52.700;7.306;2023-12-07T13:17:19;64.32;;;33.55;;
11187;SDS011;5650;52.700;7.306;2023-12-07T13:19:47;64.68;;;34.75;;
11187;SDS011;5650;52.700;7.306;2023-12-07T13:22:17;67.72;;;33.72;;
11187;SDS011;5650;52.700;7.306;2023-12-07T13:24:48;63.90;;;33.85;;
11187;SDS011;5650;52.700;7.306;2023-12-07T13:27:15;70.28;;;36.15;;
11187;SDS011;5650;52.700;7.306;2023-12-07T13:29:46;62.10;;;33.38;;
11187;SDS011;5650;52.700;7.306;2023-12-07T13:32:15;63.60;;;32.05;;
11187;SDS011;5650;52.700;7.306;2023-12-07T13:34:47;58.90;;;31.30;;
11187;SDS011;5650;52.700;7.306;2023-12-07T13:37:15;61.85;;;31.33;;
11187;SDS011;5650;52.700;7.306;2023-12-07T13:39:51;58.47;;;31.05;;
11187;SDS011;5650;52.700;7.306;2023-12-07T13:42:23;66.18;;;33.78;;
11187;SDS011;5650;52.700;7.306;2023-12-07T13:45:00;85.03;;;41.97;;
11187;SDS011;5650;52.700;7.306;2023-12-07T13:47:28;79.57;;;39.35;;
11187;SDS011;5650;52.700;7.306;2023-12-07T13:49:58;76.15;;;38.42;;
11187;SDS011;5650;52.700;7.306;2023-12-07T13:52:26;63.90;;;33.15;;
11187;SDS011;5650;52.700;7.306;2023-12-07T13:54:54;67.72;;;32.88;;
11187;SDS011;5650;52.700;7.306;2023-12-07T13:57:25;59.08;;;31.38;;
11187;SDS011;5650;52.700;7.306;2023-12-07T13:59:55;58.55;;;32.00;;
11187;SDS011;5650;52.700;7.306;2023-12-07T14:02:28;70.03;;;34.47;;
11187;SDS011;5650;52.700;7.306;2023-12-07T14:05:03;66.15;;;34.83;;
11187;SDS011;5650;52.700;7.306;2023-12-07T14:07:31;71.22;;;35.28;;
11187;SDS011;5650;52.700;7.306;2023-12-07T14:09:58;66.00;;;34.50;;
11187;SDS011;5650;52.700;7.306;2023-12-07T14:12:28;64.50;;;34.30;;
11187;SDS011;5650;52.700;7.306;2023-12-07T14:14:58;72.00;;;36.05;;
11187;SDS011;5650;52.700;7.306;2023-12-07T14:17:25;73.85;;;35.35;;
11187;SDS011;5650;52.700;7.306;2023-12-07T14:19:56;68.90;;;35.50;;
11187;SDS011;5650;52.700;7.306;2023-12-07T14:22:32;70.85;;;35.22;;
11187;SDS011;5650;52.700;7.306;2023-12-07T14:25:00;71.65;;;36.63;;
11187;SDS011;5650;52.700;7.306;2023-12-07T14:27:27;68.57;;;35.70;;
11187;SDS011;5650;52.700;7.306;2023-12-07T14:30:05;73.63;;;35.95;;
11187;SDS011;5650;52.700;7.306;2023-12-07T14:32:35;67.60;;;34.85;;
11187;SDS011;5650;52.700;7.306;2023-12-07T14:35:04;70.55;;;33.17;;
11187;SDS011;5650;52.700;7.306;2023-12-07T14:37:31;65.82;;;33.08;;
11187;SDS011;5650;52.700;7.306;2023-12-07T14:40:05;66.95;;;35.10;;
11187;SDS011;5650;52.700;7.306;2023-12-07T14:42:33;68.65;;;35.45;;
11187;SDS011;5650;52.700;7.306;2023-12-07T14:45:01;71.15;;;34.67;;
11187;SDS011;5650;52.700;7.306;2023-12-07T14:47:38;65.97;;;33.83;;
11187;SDS011;5650;52.700;7.306;2023-12-07T14:50:07;66.22;;;34.25;;
11187;SDS011;5650;52.700;7.306;2023-12-07T14:52:43;66.78;;;34.88;;
11187;SDS011;5650;52.700;7.306;2023-12-07T14:55:10;59.15;;;32.05;;
11187;SDS011;5650;52.700;7.306;2023-12-07T14:57:40;53.65;;;31.33;;
11187;SDS011;5650;52.700;7.306;2023-12-07T15:00:11;66.22;;;34.22;;
11187;SDS011;5650;52.700;7.306;2023-12-07T15:02:38;56.58;;;31.42;;
11187;SDS011;5650;52.700;7.306;2023-12-07T15:05:11;59.97;;;31.90;;